createdAt,value
2022-11-10T00:01:07.739Z,10.06
2022-11-10T00:03:35.559Z,10.00
2022-11-10T00:06:06.503Z,9.96
2022-11-10T00:08:32.922Z,9.99
2022-11-10T00:11:01.296Z,9.89
2022-11-10T00:13:31.656Z,10.01
2022-11-10T00:16:18.206Z,10.05
2022-11-10T00:18:45.078Z,10.02
2022-11-10T00:21:13.042Z,9.91
2022-11-10T00:23:39.701Z,9.90
2022-11-10T00:26:12.169Z,9.96
2022-11-10T00:28:38.715Z,9.92
2022-11-10T00:31:06.279Z,9.87
2022-11-10T00:33:35.394Z,9.95
2022-11-10T00:36:02.017Z,9.91
2022-11-10T00:38:28.425Z,9.84
2022-11-10T00:40:54.823Z,9.90
2022-11-10T00:43:26.227Z,9.89
2022-11-10T00:45:53.064Z,9.90
2022-11-10T00:48:19.430Z,9.82
2022-11-10T00:50:46.160Z,9.92
2022-11-10T00:53:13.030Z,9.86
2022-11-10T00:55:40.753Z,9.90
2022-11-10T00:58:09.929Z,9.87
2022-11-10T01:00:36.506Z,9.94
2022-11-10T01:03:03.197Z,9.94
2022-11-10T01:05:30.767Z,9.93
2022-11-10T01:07:59.451Z,9.92
2022-11-10T01:10:26.664Z,9.91
2022-11-10T01:12:53.270Z,9.86
2022-11-10T01:15:24.506Z,9.86
2022-11-10T01:17:54.867Z,9.77
2022-11-10T01:20:21.728Z,9.78
2022-11-10T01:22:48.141Z,9.79
2022-11-10T01:25:14.656Z,9.85
2022-11-10T01:27:41.078Z,9.77
2022-11-10T01:30:07.862Z,9.74
2022-11-10T01:32:34.400Z,9.78
2022-11-10T01:35:00.764Z,9.79
2022-11-10T01:37:27.361Z,9.75
2022-11-10T01:39:53.851Z,9.78
2022-11-10T01:42:28.928Z,9.77
2022-11-10T01:45:34.560Z,9.78
2022-11-10T01:48:05.415Z,9.77
2022-11-10T01:50:39.922Z,9.72
2022-11-10T01:53:13.272Z,9.76
2022-11-10T01:55:43.122Z,9.75
2022-11-10T01:58:12.673Z,9.74
2022-11-10T02:00:39.111Z,9.69
2022-11-10T02:03:27.930Z,9.76
2022-11-10T02:05:55.602Z,9.73
2022-11-10T02:08:23.345Z,9.79
2022-11-10T02:10:49.759Z,9.68
2022-11-10T02:13:16.691Z,9.72
2022-11-10T02:15:43.371Z,9.69
2022-11-10T02:18:09.790Z,9.70
2022-11-10T02:20:36.233Z,9.75
2022-11-10T02:23:35.747Z,9.70
2022-11-10T02:26:07.052Z,9.68
2022-11-10T02:28:36.361Z,9.63
2022-11-10T02:31:03.259Z,9.66
2022-11-10T02:33:30.092Z,9.66
2022-11-10T02:35:56.586Z,9.64
2022-11-10T02:38:23.139Z,9.65
2022-11-10T02:40:49.988Z,9.46
2022-11-10T02:43:18.352Z,9.58
2022-11-10T02:45:45.473Z,9.56
2022-11-10T02:48:14.626Z,9.63
2022-11-10T02:50:41.415Z,9.59
2022-11-10T02:53:08.309Z,9.57
2022-11-10T02:55:34.735Z,9.56
2022-11-10T02:58:01.220Z,9.51
2022-11-10T03:00:27.632Z,9.47
2022-11-10T03:02:57.896Z,9.46
2022-11-10T03:05:24.881Z,9.48
2022-11-10T03:07:55.685Z,9.37
2022-11-10T03:10:22.784Z,9.40
2022-11-10T03:12:49.685Z,9.37
2022-11-10T03:15:16.168Z,9.40
2022-11-10T03:17:43.080Z,9.50
2022-11-10T03:20:09.851Z,9.51
2022-11-10T03:22:36.932Z,9.48
2022-11-10T03:25:04.086Z,9.46
2022-11-10T03:27:30.515Z,9.40
2022-11-10T03:29:56.964Z,9.40
2022-11-10T03:32:23.523Z,9.37
2022-11-10T03:34:49.940Z,9.40
2022-11-10T03:37:16.414Z,9.30
2022-11-10T03:39:42.827Z,9.40
2022-11-10T03:42:09.278Z,9.33
2022-11-10T03:44:35.661Z,9.35
2022-11-10T03:47:03.889Z,9.37
2022-11-10T03:49:31.085Z,9.33
2022-11-10T03:51:57.750Z,9.26
2022-11-10T03:54:24.147Z,9.37
2022-11-10T03:56:50.523Z,9.27
2022-11-10T03:59:16.890Z,9.24
2022-11-10T04:01:43.520Z,9.19
2022-11-10T04:04:30.691Z,9.23
2022-11-10T04:07:15.661Z,9.23
2022-11-10T04:09:42.176Z,9.27
2022-11-10T04:12:27.256Z,9.28
2022-11-10T04:15:12.305Z,9.26
2022-11-10T04:17:38.657Z,9.31
2022-11-10T04:20:05.588Z,9.24
2022-11-10T04:22:50.828Z,9.29
2022-11-10T04:25:17.256Z,9.19
2022-11-10T04:27:43.657Z,9.20
2022-11-10T04:30:10.590Z,9.18
2022-11-10T04:32:36.981Z,9.17
2022-11-10T04:35:03.528Z,9.19
2022-11-10T04:37:29.965Z,9.19
2022-11-10T04:39:56.363Z,9.24
2022-11-10T04:42:22.738Z,9.19
2022-11-10T04:44:49.113Z,9.20
2022-11-10T04:47:15.464Z,9.15
2022-11-10T04:49:41.861Z,9.23
2022-11-10T04:52:08.253Z,9.26
2022-11-10T04:54:34.634Z,9.24
2022-11-10T04:57:01.187Z,9.24
2022-11-10T04:59:27.541Z,9.25
2022-11-10T05:01:53.896Z,9.27
2022-11-10T05:04:20.281Z,9.26
2022-11-10T05:06:46.688Z,9.18
2022-11-10T05:09:14.198Z,9.21
2022-11-10T05:11:40.624Z,9.18
2022-11-10T05:14:07.081Z,9.23
2022-11-10T05:16:33.559Z,9.19
2022-11-10T05:18:59.979Z,9.19
2022-11-10T05:21:26.718Z,9.11
2022-11-10T05:23:53.102Z,9.11
2022-11-10T05:26:19.717Z,9.11
2022-11-10T05:28:46.333Z,9.09
2022-11-10T05:31:12.887Z,9.05
2022-11-10T05:33:39.413Z,9.06
2022-11-10T05:36:07.054Z,9.07
2022-11-10T05:38:34.946Z,9.03
2022-11-10T05:41:04.107Z,9.08
2022-11-10T05:43:30.475Z,9.07
2022-11-10T05:45:56.851Z,9.05
2022-11-10T05:48:23.228Z,8.97
2022-11-10T05:50:49.690Z,9.05
2022-11-10T05:53:16.094Z,9.06
2022-11-10T05:55:42.514Z,8.92
2022-11-10T05:58:09.138Z,8.89
2022-11-10T06:00:35.892Z,8.93
2022-11-10T06:03:10.317Z,8.96
2022-11-10T06:05:36.857Z,8.86
2022-11-10T06:08:04.972Z,8.87
2022-11-10T06:10:32.752Z,8.97
2022-11-10T06:12:59.222Z,8.88
2022-11-10T06:15:26.274Z,8.91
2022-11-10T06:17:53.242Z,8.90
2022-11-10T06:20:19.773Z,8.91
2022-11-10T06:23:15.408Z,8.95
2022-11-10T06:25:42.115Z,8.85
2022-11-10T06:28:09.560Z,8.94
2022-11-10T06:30:37.538Z,8.82
2022-11-10T06:33:04.324Z,8.86
2022-11-10T06:35:31.033Z,8.88
2022-11-10T06:38:05.795Z,8.91
2022-11-10T06:40:32.913Z,8.88
2022-11-10T06:43:00.099Z,8.81
2022-11-10T06:45:28.502Z,8.97
2022-11-10T06:48:04.201Z,8.92
2022-11-10T06:50:31.179Z,8.88
2022-11-10T06:52:59.005Z,8.93
2022-11-10T06:55:25.923Z,8.93
2022-11-10T06:57:52.386Z,8.89
2022-11-10T07:00:19.028Z,8.93
2022-11-10T07:02:45.609Z,8.98
2022-11-10T07:05:12.041Z,8.83
2022-11-10T07:07:38.478Z,8.91
2022-11-10T07:10:07.135Z,9.01
2022-11-10T07:12:34.019Z,9.02
2022-11-10T07:15:00.635Z,9.08
2022-11-10T07:17:27.210Z,9.08
2022-11-10T07:19:53.686Z,9.04
2022-11-10T07:22:20.115Z,9.09
2022-11-10T07:24:46.917Z,9.09
2022-11-10T07:27:16.469Z,9.10
2022-11-10T07:29:42.992Z,9.09
2022-11-10T07:32:09.522Z,9.05
2022-11-10T07:34:35.974Z,9.08
2022-11-10T07:37:02.476Z,9.11
2022-11-10T07:39:28.959Z,9.16
2022-11-10T07:41:55.522Z,9.24
2022-11-10T07:44:21.952Z,9.24
2022-11-10T07:46:48.378Z,9.33
2022-11-10T07:49:15.001Z,9.33
2022-11-10T07:51:42.816Z,9.30
2022-11-10T07:54:09.390Z,9.25
2022-11-10T07:56:35.927Z,9.37
2022-11-10T07:59:02.352Z,9.40
2022-11-10T08:01:28.925Z,9.51
2022-11-10T08:03:55.579Z,9.54
2022-11-10T08:06:22.080Z,9.60
2022-11-10T08:08:48.722Z,9.61
2022-11-10T08:11:15.341Z,9.63
2022-11-10T08:13:42.277Z,9.76
2022-11-10T08:16:09.118Z,9.80
2022-11-10T08:18:35.891Z,9.91
2022-11-10T08:21:04.785Z,9.92
2022-11-10T08:23:31.438Z,10.13
2022-11-10T08:25:59.148Z,10.45
2022-11-10T08:28:26.322Z,10.31
2022-11-10T08:30:54.046Z,10.34
2022-11-10T08:33:21.737Z,10.45
2022-11-10T08:35:50.380Z,10.57
2022-11-10T08:38:22.044Z,11.04
2022-11-10T08:40:49.178Z,11.15
2022-11-10T08:43:17.627Z,11.46
2022-11-10T08:45:44.951Z,11.47
2022-11-10T08:48:19.798Z,11.49
2022-11-10T08:50:47.035Z,11.89
2022-11-10T08:53:15.613Z,11.95
2022-11-10T08:55:43.503Z,12.01
2022-11-10T08:58:15.822Z,13.03
2022-11-10T09:00:42.681Z,15.00
2022-11-10T09:03:13.830Z,14.99
2022-11-10T09:05:41.563Z,14.97
2022-11-10T09:08:09.061Z,18.36
2022-11-10T09:10:38.977Z,22.18
2022-11-10T09:13:06.346Z,22.59
2022-11-10T09:15:34.642Z,23.15
2022-11-10T09:18:02.849Z,22.05
2022-11-10T09:20:31.115Z,24.37
2022-11-10T09:23:06.230Z,24.49
2022-11-10T09:25:33.467Z,24.38
2022-11-10T09:27:59.936Z,24.02
2022-11-10T09:30:26.489Z,23.55
2022-11-10T09:32:57.461Z,23.18
2022-11-10T09:35:24.472Z,22.97
2022-11-10T09:37:50.925Z,22.98
2022-11-10T09:40:20.518Z,21.94
2022-11-10T09:42:48.402Z,20.73
2022-11-10T09:45:36.513Z,20.14
2022-11-10T09:48:21.900Z,19.49
2022-11-10T09:50:54.028Z,19.09
2022-11-10T09:53:24.776Z,17.50
2022-11-10T09:55:58.190Z,17.99
2022-11-10T09:58:33.329Z,17.49
2022-11-10T10:01:12.208Z,17.07
2022-11-10T10:03:47.652Z,16.82
2022-11-10T10:06:16.171Z,16.37
2022-11-10T10:08:58.566Z,15.07
2022-11-10T10:11:45.267Z,15.39
2022-11-10T10:14:35.381Z,16.08
2022-11-10T10:17:26.944Z,16.65
2022-11-10T10:20:29.219Z,15.52
2022-11-10T10:23:13.785Z,15.60
2022-11-10T10:25:43.491Z,14.76
2022-11-10T10:28:19.245Z,14.85
2022-11-10T10:30:45.933Z,15.84
2022-11-10T10:33:17.533Z,16.46
2022-11-10T10:35:45.236Z,17.31
2022-11-10T10:38:21.698Z,17.00
2022-11-10T10:40:50.999Z,17.16
2022-11-10T10:43:18.361Z,16.89
2022-11-10T10:45:44.908Z,16.76
2022-11-10T10:48:25.747Z,17.70
2022-11-10T10:50:52.147Z,17.15
2022-11-10T10:53:23.640Z,17.03
2022-11-10T10:56:15.253Z,17.56
2022-11-10T10:58:55.546Z,17.14
2022-11-10T11:01:33.747Z,18.18
2022-11-10T11:04:04.925Z,17.74
2022-11-10T11:06:33.384Z,18.00
2022-11-10T11:09:15.894Z,18.39
2022-11-10T11:11:44.658Z,18.32
2022-11-10T11:14:28.775Z,18.50
2022-11-10T11:16:58.006Z,18.11
2022-11-10T11:19:28.121Z,18.53
2022-11-10T11:22:22.291Z,17.48
2022-11-10T11:24:59.534Z,18.11
2022-11-10T11:27:37.834Z,17.07
2022-11-10T11:30:21.216Z,16.71
2022-11-10T11:33:12.615Z,16.71
2022-11-10T11:36:03.185Z,15.99
2022-11-10T11:38:44.147Z,17.30
2022-11-10T11:41:19.655Z,18.49
2022-11-10T11:44:33.698Z,17.73
2022-11-10T11:47:32.963Z,16.82
2022-11-10T11:50:15.377Z,17.04
2022-11-10T11:53:24.036Z,17.57
2022-11-10T11:56:19.865Z,17.27
2022-11-10T11:58:59.423Z,16.86
2022-11-10T12:01:53.037Z,17.10
2022-11-10T12:04:25.675Z,17.10
2022-11-10T12:07:13.183Z,17.72
2022-11-10T12:09:49.462Z,16.71
2022-11-10T12:12:37.484Z,16.59
2022-11-10T12:15:16.162Z,16.45
2022-11-10T12:17:51.540Z,17.25
2022-11-10T12:20:37.634Z,16.73
2022-11-10T12:23:38.419Z,16.15
2022-11-10T12:26:25.333Z,15.46
2022-11-10T12:29:06.115Z,15.81
2022-11-10T12:31:35.633Z,15.33
2022-11-10T12:34:09.414Z,15.09
2022-11-10T12:36:37.160Z,14.97
2022-11-10T12:39:13.695Z,14.82
2022-11-10T12:41:46.798Z,14.73
2022-11-10T12:44:36.604Z,14.84
2022-11-10T12:47:06.211Z,14.85
2022-11-10T12:49:34.192Z,14.72
2022-11-10T12:52:09.163Z,14.96
2022-11-10T12:54:36.379Z,15.10
2022-11-10T12:57:18.472Z,15.05
2022-11-10T13:00:27.707Z,15.05
2022-11-10T13:02:56.135Z,15.05
2022-11-10T13:05:27.613Z,14.86
2022-11-10T13:08:06.693Z,14.98
2022-11-10T13:10:33.459Z,15.07
2022-11-10T13:13:05.823Z,14.97
2022-11-10T13:15:35.313Z,14.63
2022-11-10T13:18:02.226Z,14.65
2022-11-10T13:20:52.215Z,14.56
2022-11-10T13:23:31.269Z,14.90
2022-11-10T13:26:05.679Z,15.12
2022-11-10T13:28:47.519Z,15.28
2022-11-10T13:31:29.483Z,14.71
2022-11-10T13:34:12.623Z,14.61
2022-11-10T13:36:47.693Z,14.39
2022-11-10T13:39:20.194Z,14.47
2022-11-10T13:41:48.409Z,14.26
2022-11-10T13:44:25.472Z,14.30
2022-11-10T13:47:10.118Z,14.34
2022-11-10T13:49:58.507Z,14.68
2022-11-10T13:52:46.532Z,14.42
2022-11-10T13:55:47.264Z,14.21
2022-11-10T13:58:29.654Z,14.14
2022-11-10T14:01:14.885Z,14.23
2022-11-10T14:03:47.890Z,14.26
2022-11-10T14:06:29.871Z,14.26
2022-11-10T14:09:04.759Z,14.14
2022-11-10T14:11:38.012Z,14.02
2022-11-10T14:14:12.874Z,14.08
2022-11-10T14:16:43.027Z,14.11
2022-11-10T14:19:27.051Z,14.06
2022-11-10T14:22:01.208Z,14.01
2022-11-10T14:24:31.068Z,13.98
2022-11-10T14:26:59.867Z,13.97
2022-11-10T14:29:39.895Z,13.87
2022-11-10T14:32:16.218Z,13.90
2022-11-10T14:34:47.712Z,13.85
2022-11-10T14:37:26.247Z,13.83
2022-11-10T14:39:55.531Z,13.84
2022-11-10T14:42:30.771Z,13.85
2022-11-10T14:45:07.704Z,13.84
2022-11-10T14:47:35.740Z,13.79
2022-11-10T14:50:08.099Z,13.78
2022-11-10T14:52:40.045Z,13.67
2022-11-10T14:55:19.449Z,13.63
2022-11-10T14:57:58.674Z,13.58
2022-11-10T15:00:27.100Z,13.66
2022-11-10T15:02:57.208Z,13.58
2022-11-10T15:05:24.837Z,13.58
2022-11-10T15:07:55.340Z,13.60
2022-11-10T15:10:26.369Z,13.53
2022-11-10T15:13:05.561Z,13.49
2022-11-10T15:15:32.501Z,13.41
2022-11-10T15:17:58.875Z,13.37
2022-11-10T15:20:52.351Z,13.33
2022-11-10T15:23:32.113Z,13.24
2022-11-10T15:25:59.822Z,13.17
2022-11-10T15:28:36.471Z,13.16
2022-11-10T15:31:09.847Z,13.11
2022-11-10T15:33:38.247Z,13.07
2022-11-10T15:36:27.835Z,13.02
2022-11-10T15:39:12.591Z,12.98
2022-11-10T15:41:43.775Z,12.96
2022-11-10T15:44:22.093Z,12.85
2022-11-10T15:46:52.543Z,12.87
2022-11-10T15:49:29.155Z,12.85
2022-11-10T15:52:02.406Z,12.84
2022-11-10T15:54:33.129Z,12.81
2022-11-10T15:56:59.497Z,12.78
2022-11-10T15:59:25.901Z,12.68
2022-11-10T16:01:52.719Z,12.63
2022-11-10T16:04:19.311Z,12.63
2022-11-10T16:06:46.402Z,12.64
2022-11-10T16:09:14.113Z,12.63
2022-11-10T16:11:45.173Z,12.58
2022-11-10T16:14:15.506Z,12.50
2022-11-10T16:16:42.670Z,12.52
2022-11-10T16:19:12.690Z,12.50
2022-11-10T16:21:39.138Z,12.51
2022-11-10T16:24:05.692Z,12.54
2022-11-10T16:26:33.965Z,12.46
2022-11-10T16:29:00.463Z,12.47
2022-11-10T16:31:27.747Z,12.38
2022-11-10T16:33:54.139Z,12.37
2022-11-10T16:36:27.859Z,12.35
2022-11-10T16:38:55.056Z,12.27
2022-11-10T16:41:21.742Z,12.27
2022-11-10T16:43:48.156Z,12.22
2022-11-10T16:46:23.783Z,12.17
2022-11-10T16:48:53.543Z,12.25
2022-11-10T16:51:28.493Z,12.23
2022-11-10T16:53:54.992Z,12.19
2022-11-10T16:56:21.744Z,12.14
2022-11-10T16:58:48.122Z,12.06
2022-11-10T17:01:21.599Z,12.12
2022-11-10T17:03:52.527Z,12.15
2022-11-10T17:06:20.898Z,12.03
2022-11-10T17:08:52.950Z,12.02
2022-11-10T17:11:19.384Z,11.95
2022-11-10T17:13:45.862Z,11.92
2022-11-10T17:16:22.935Z,11.85
2022-11-10T17:18:50.428Z,11.89
2022-11-10T17:21:17.871Z,11.86
2022-11-10T17:23:44.645Z,11.71
2022-11-10T17:26:14.138Z,11.76
2022-11-10T17:28:40.735Z,11.81
2022-11-10T17:31:09.433Z,11.77
2022-11-10T17:33:35.849Z,11.70
2022-11-10T17:36:05.065Z,11.77
2022-11-10T17:38:33.229Z,11.71
2022-11-10T17:40:59.763Z,11.71
2022-11-10T17:43:26.543Z,11.68
2022-11-10T17:45:53.131Z,11.58
2022-11-10T17:48:19.782Z,11.52
2022-11-10T17:50:48.995Z,11.46
2022-11-10T17:53:21.509Z,11.52
2022-11-10T17:55:49.162Z,11.39
2022-11-10T17:58:23.653Z,11.42
2022-11-10T18:00:53.713Z,11.39
2022-11-10T18:03:22.486Z,11.35
2022-11-10T18:05:49.490Z,11.39
2022-11-10T18:08:17.338Z,11.30
2022-11-10T18:10:47.653Z,11.23
2022-11-10T18:13:14.496Z,11.08
2022-11-10T18:15:45.530Z,11.07
2022-11-10T18:18:16.620Z,11.06
2022-11-10T18:20:44.231Z,11.02
2022-11-10T18:23:12.562Z,10.94
2022-11-10T18:25:40.343Z,11.07
2022-11-10T18:28:07.199Z,10.97
2022-11-10T18:30:35.340Z,10.95
2022-11-10T18:33:03.399Z,10.96
2022-11-10T18:35:30.537Z,10.93
2022-11-10T18:37:57.960Z,10.94
2022-11-10T18:40:24.801Z,11.00
2022-11-10T18:42:51.242Z,10.89
2022-11-10T18:45:17.642Z,10.84
2022-11-10T18:47:44.105Z,10.85
2022-11-10T18:50:10.898Z,10.80
2022-11-10T18:52:37.581Z,10.79
2022-11-10T18:55:04.180Z,10.83
2022-11-10T18:57:30.582Z,10.88
2022-11-10T18:59:57.167Z,10.79
2022-11-10T19:02:23.650Z,10.72
2022-11-10T19:04:53.594Z,10.68
2022-11-10T19:07:20.645Z,10.79
2022-11-10T19:09:47.065Z,10.73
2022-11-10T19:12:13.818Z,10.76
2022-11-10T19:14:41.159Z,10.72
2022-11-10T19:17:07.545Z,10.69
2022-11-10T19:19:33.974Z,10.75
2022-11-10T19:22:00.731Z,10.78
2022-11-10T19:24:28.411Z,10.72
2022-11-10T19:26:56.813Z,10.68
2022-11-10T19:29:23.353Z,10.64
2022-11-10T19:31:49.928Z,10.62
2022-11-10T19:34:18.828Z,10.64
2022-11-10T19:36:46.531Z,10.59
2022-11-10T19:39:26.006Z,10.62
2022-11-10T19:41:52.860Z,10.60
2022-11-10T19:44:19.406Z,10.64
2022-11-10T19:46:48.934Z,10.62
2022-11-10T19:49:15.507Z,10.61
2022-11-10T19:51:47.339Z,10.60
2022-11-10T19:54:13.841Z,10.64
2022-11-10T19:56:40.374Z,10.61
2022-11-10T19:59:08.193Z,10.62
2022-11-10T20:01:37.487Z,10.64
2022-11-10T20:04:05.657Z,10.64
2022-11-10T20:06:32.263Z,10.61
2022-11-10T20:08:58.736Z,10.54
2022-11-10T20:11:26.598Z,10.56
2022-11-10T20:13:56.010Z,10.58
2022-11-10T20:16:23.244Z,10.56
2022-11-10T20:18:49.808Z,10.49
2022-11-10T20:21:20.748Z,10.49
2022-11-10T20:23:52.617Z,10.40
2022-11-10T20:26:19.068Z,10.39
2022-11-10T20:28:45.571Z,10.34
2022-11-10T20:31:20.357Z,10.35
2022-11-10T20:33:48.461Z,10.31
2022-11-10T20:36:26.069Z,10.34
2022-11-10T20:38:54.736Z,10.31
2022-11-10T20:41:24.105Z,10.23
2022-11-10T20:43:51.247Z,10.25
2022-11-10T20:46:48.673Z,10.21
2022-11-10T20:49:09.733Z,10.19
2022-11-10T20:51:36.322Z,10.17
2022-11-10T20:54:02.781Z,10.17
2022-11-10T20:56:30.217Z,10.16
2022-11-10T20:58:57.341Z,10.15
2022-11-10T21:01:24.420Z,10.12
2022-11-10T21:03:52.314Z,10.14
2022-11-10T21:06:18.847Z,10.16
2022-11-10T21:08:45.434Z,10.10
2022-11-10T21:11:32.662Z,10.19
2022-11-10T21:14:08.616Z,10.12
2022-11-10T21:16:35.150Z,10.17
2022-11-10T21:19:01.736Z,10.09
2022-11-10T21:21:34.608Z,10.12
2022-11-10T21:24:02.529Z,10.03
2022-11-10T21:26:31.142Z,10.10
2022-11-10T21:28:58.139Z,10.09
2022-11-10T21:31:25.938Z,10.04
2022-11-10T21:33:56.903Z,9.96
2022-11-10T21:36:23.359Z,9.94
2022-11-10T21:38:49.881Z,10.02
2022-11-10T21:41:16.247Z,10.01
2022-11-10T21:43:42.682Z,10.06
2022-11-10T21:46:09.273Z,9.94
2022-11-10T21:48:36.084Z,9.95
2022-11-10T21:51:04.235Z,9.98
2022-11-10T21:53:32.108Z,9.95
2022-11-10T21:55:59.701Z,9.95
2022-11-10T21:58:27.180Z,9.97
2022-11-10T22:01:01.419Z,9.93
2022-11-10T22:03:29.358Z,9.92
2022-11-10T22:05:55.982Z,9.90
2022-11-10T22:08:22.419Z,9.90
2022-11-10T22:11:07.579Z,9.87
2022-11-10T22:13:52.525Z,9.78
2022-11-10T22:16:41.816Z,9.86
2022-11-10T22:19:09.039Z,9.78
2022-11-10T22:21:35.443Z,9.78
2022-11-10T22:24:20.556Z,9.75
2022-11-10T22:26:48.115Z,9.76
2022-11-10T22:29:14.757Z,9.78
2022-11-10T22:31:41.301Z,9.68
2022-11-10T22:34:08.119Z,9.76
2022-11-10T22:36:34.656Z,9.75
2022-11-10T22:39:03.779Z,9.65
2022-11-10T22:41:49.449Z,9.67
2022-11-10T22:44:16.603Z,9.67
2022-11-10T22:46:50.824Z,9.65
2022-11-10T22:49:19.160Z,9.67
2022-11-10T22:51:47.837Z,9.62
2022-11-10T22:54:19.595Z,9.62
2022-11-10T22:56:48.054Z,9.57
2022-11-10T22:59:15.410Z,9.47
2022-11-10T23:01:43.189Z,9.56
2022-11-10T23:04:11.086Z,9.54
2022-11-10T23:06:37.956Z,9.57
2022-11-10T23:09:04.585Z,9.56
2022-11-10T23:11:32.505Z,9.57
2022-11-10T23:13:59.192Z,9.49
2022-11-10T23:16:27.949Z,9.52
2022-11-10T23:18:55.362Z,9.49
2022-11-10T23:21:24.814Z,9.45
2022-11-10T23:23:51.352Z,9.47
2022-11-10T23:26:23.921Z,9.46
2022-11-10T23:28:52.016Z,9.49
2022-11-10T23:31:21.356Z,9.38
2022-11-10T23:33:50.073Z,9.29
2022-11-10T23:36:18.592Z,9.29
2022-11-10T23:38:47.023Z,9.33
2022-11-10T23:41:16.132Z,9.36
2022-11-10T23:43:43.722Z,9.30
2022-11-10T23:46:11.494Z,9.21
2022-11-10T23:48:39.104Z,9.28
2022-11-10T23:51:06.771Z,9.24
2022-11-10T23:53:33.585Z,9.30
2022-11-10T23:56:02.548Z,9.26
2022-11-10T23:58:29.838Z,9.20
